Kansas City, Missouri
Traffic Map
Current Weather Conditions
Kansas City, Missouri
Few Clouds
Few Clouds
37°
Feels Like: 30°
Wind Chill: 30° Ceiling: Unl
Heat Index: 37° Visibility: 10mi
Dew Point: 25° Wind: 10mph
Humidity: 62% Direction: 300° (WNW)
Pressure: 29.58in Gusts: 28mph
Raw Report DataKMKC 240854Z 30009G24KT 10SM FEW040 03/M04 A2958 RMK AO2 PK WND 31032/0817 RAE14SNB14E39 SLP016 P0000 60000 T00281039 53032
Traffic Incident Summary
Active as of:
Severity:
Category:
InformationThere was an issue retrieving the traffic information for this location. Please try a different location or try again shortly.
Advertisements
Track Severe Weather on mobile